Relevés horaires Gornergrat (Suisse)


Relevés horaires à Gornergrat - Vendredi 20 Sept. 2013
Heure UTC1 Température [°C] Vent [km/h] Hum. [%] Pres.4 [hPa] Visi. [Km] Nébu. [octa] Préc.5 [mm] Cond.
2m. Res. Ros. Dir.2 Vit. Moy. Raf.3
23:00 1.8 0.2 -19.8 SO 5.6 9.3 13.0 18 700(0.4/3h) -- -- -- --
22:00 2.4 2.4 -20.3 ONO 3.7 7.4 9.3 17 700(0.3/3h) -- -- -- --
21:00 2.3 0.8 -19.6 ONO 5.6 9.3 18.5 18 700(0.8/3h) -- -- -- --
20:00 2.5 1 -16.6 S 5.6 9.3 18.5 23 700(0.9/3h) -- -- -- --
19:00 2.2 0.7 -12.5 OSO 5.6 9.3 16.7 33 700(1.0/3h) -- -- -- --
18:00 2.6 0.5 -13.3 NO 7.4 13.0 20.4 30 700(0.7/3h) -- -- -- --
17:00 3.0 0 -10.4 NNO 11.1 13.0 18.5 37 700(0.6/3h) -- -- -- --
16:00 3.1 0.6 -10.5 NNO 9.3 9.3 14.8 36 700(0.5/3h) -- -- -- --
15:00 3.7 3.7 -9.1 NO 3.7 11.1 20.4 39 700(0.5/3h) -- -- -- --
14:00 5.3 4.2 -7.7 NNO 5.6 7.4 18.5 38 700(0.7/3h) -- -- -- --
13:00 6.5 4.2 -7.3 SSE 11.1 11.1 20.4 36 700(0.6/3h) -- -- -- --
11:00 6.1 3.8 -6.8 SSE 11.1 11.1 24.1 39 700(0.9/3h) -- -- -- --
10:00 5.7 4.7 -6.4 S 5.6 7.4 18.5 41 700(1.3/3h) -- -- -- --
09:00 4.1 1.7 -8.8 SSE 9.3 14.8 24.1 38 700(1.3/3h) -- -- -- --
08:00 2.1 0.5 -11.0 SSE 5.6 5.6 13.0 37 700(1.1/3h) -- -- -- --
07:00 1.9 0.3 -13.8 SSO 5.6 7.4 13.0 30 700(0.9/3h) -- -- -- --
05:00 1.6 -1.2 -16.3 SSE 9.3 7.4 16.7 25 700(0.4/3h) -- -- -- --
04:00 2.2 0 -17.7 O 7.4 7.4 14.8 21 700(0.4/3h) -- -- -- --
03:00 1.9 -0.9 -17.0 S 9.3 14.8 18.5 23 700(0.0/3h) -- -- -- --
02:00 1.9 -0.3 -16.8 SSE 7.4 7.4 9.3 23 700(0.1/3h) -- -- -- --
01:00 1.8 -1.4 -17.5 NNO 11.1 14.8 18.5 22 700(-0.3/3h) -- -- -- --
00:00 2.2 0.7 -18.4 ONO 5.6 13.0 22.2 20 700(-0.1/3h) -- -- -- --

1 Coordinated Universal Time. Actuellement il est 06:00 locale et 04:00 UTC.

2 Le vent souffle depuis la direction indiquée vers la direction oposée.

3 Les rafales max. sont disponible 40 min après l'heure du relevé.

4 Pour les stations d'altitude (plus de 600m) le géopotentiel du niveau le plus proche de la pression obligatoire est indiqué.

5 Les stations disposant d'un diffuseur peuvent indiquer "trace". Cela signifie que des précipitations ont touchés le sol mais que la quantité est inférieure à 0.1 mm.

Copyright

Les données affichées sur cette page sont la propriété exclusive de Météo Suisse.

Récapitulatif de la journée
Température [°C] Vent [km/h] Ensoleillement4 [h] Precipitations totale5 [mm] Pression [Hpa]
Min1 Max.2 Moy.3 Max. Min Max.
-- 7.5 10 24.1 0 h 0 min 0 700.0 700.0

1 Température minimale relevée entre 18:00 UTC la veille et 18:00 UTC le jour donné.

2 Température maximale relevée entre 06:00 UTC le jour donné et 06:00 UTC le lendemain.

3 Vent moyen de la journée basé sur les relevés horaires.

4 Ensoleillement en heures relevé entre 06:00 UTC la veille et 06:00 UTC le jour donné.

5 Précipitations totales tombées entre 06:00 UTC la jour donné et 06:00 UTC le lendemain.

Graphiques horaires